Lakeview, Nevada
Current Conditions -  °F | °C
As of 12:15 AM on Tuesday 27 Jan 2015 (Local Time) from KCXP Reporting Station
Overcast Overcast  
Wind Chill: 39°   Ceiling: 10000
Heat Index: 39°   Visibility: 10mi
Dew Point: 25°   Wind: 3mph
Humidity: 56%   Direction: 290°WNW
Pressure: 30.08"   Gusts: NA
Location:  39.1386°N, 119.659°W
Report Text: KCXP 270815Z AUTO 29003KT 10SM OVC100 04/M04 A3008 RMK AO2
Loading
Personal Weather Stations






























Interactive Weather Map New forecast layout! Learn more

10-Day Weather Forecast

Advertisements
Track Severe Weather on mobile